Time;durP1;ratioP1;P1;durP2;ratioP2;P2;SDS_P1;SDS_P2;PMS_P1;PMS_P2;Temp;Humidity;BMP_temperature;BMP_pressure;BME280_temperature;BME280_humidity;BME280_pressure;Samples;Min_cycle;Max_cycle;Signal;HPM_P1;HPM_P2
2022/03/20 00:01:52;;;;;;;36.97;22.17;;;;;;;;;;7329362;19;153590;-15
2022/03/20 00:04:23;;;;;;;37.25;22.77;;;;;;;;;;7328982;19;162070;-15
2022/03/20 00:06:55;;;;;;;35.80;22.08;;;;;;;;;;7330361;19;162560;-16
2022/03/20 00:09:26;;;;;;;39.53;22.08;;;;;;;;;;7332117;19;153973;-17
2022/03/20 00:11:57;;;;;;;36.40;21.92;;;;;;;;;;7328359;19;153803;-15
2022/03/20 00:14:31;;;;;;;37.67;21.70;;;;;;;;;;7328826;19;162205;-14
2022/03/20 00:17:02;;;;;;;30.65;20.17;;;;;;;;;;7328752;19;162709;-16
2022/03/20 00:19:35;;;;;;;22.10;14.70;;;;;;;;;;7331220;19;153912;-15
2022/03/20 00:22:06;;;;;;;27.20;14.00;;;;;;;;;;7327289;19;153655;-15
2022/03/20 00:24:40;;;;;;;24.02;12.68;;;;;;;;;;7327788;19;161811;-13
2022/03/20 00:27:12;;;;;;;26.85;13.00;;;;;;;;;;7328653;19;162313;-15
2022/03/20 00:29:46;;;;;;;24.47;14.73;;;;;;;;;;7328688;19;153787;-14
2022/03/20 00:32:19;;;;;;;24.95;14.38;;;;;;;;;;7328798;19;153605;-16
2022/03/20 08:51:50;;;;;;;4.82;3.90;;;;;;;;;;7362470;19;132472;-12
2022/03/20 08:54:22;;;;;;;8.52;3.72;;;;;;;;;;7364821;19;154011;-14
2022/03/20 08:56:53;;;;;;;6.13;4.20;;;;;;;;;;7364758;19;153598;-14
2022/03/20 08:59:24;;;;;;;7.05;4.05;;;;;;;;;;7364276;19;162069;-14
2022/03/20 09:01:55;;;;;;;6.45;4.00;;;;;;;;;;7362328;19;162553;-15
2022/03/20 09:04:28;;;;;;;6.43;3.58;;;;;;;;;;7364860;19;153880;-16
2022/03/20 09:07:03;;;;;;;5.07;3.75;;;;;;;;;;7363455;19;153609;-15
2022/03/20 09:09:35;;;;;;;6.78;4.30;;;;;;;;;;7362502;19;161853;-16
2022/03/20 09:12:08;;;;;;;6.85;3.70;;;;;;;;;;7361714;19;162572;-17
2022/03/20 09:14:40;;;;;;;4.15;3.75;;;;;;;;;;7364458;19;153937;-15
2022/03/20 09:19:57;;;;;;;4.95;3.70;;;;;;;;;;7363914;19;161979;-14
2022/03/20 09:22:32;;;;;;;6.50;3.80;;;;;;;;;;7363348;19;162464;-15
2022/03/20 09:25:04;;;;;;;4.60;3.55;;;;;;;;;;7363793;19;154376;-16
2022/03/20 09:27:35;;;;;;;6.17;3.70;;;;;;;;;;7364007;19;155149;-15
2022/03/20 09:30:09;;;;;;;6.65;3.75;;;;;;;;;;7363558;19;161917;-14
2022/03/20 09:32:40;;;;;;;4.20;3.72;;;;;;;;;;7360767;19;162610;-12
2022/03/20 09:35:12;;;;;;;5.07;3.22;;;;;;;;;;7363309;19;154014;-15
2022/03/20 09:37:46;;;;;;;6.35;3.38;;;;;;;;;;7363234;19;153541;-14
2022/03/20 09:40:22;;;;;;;6.43;3.90;;;;;;;;;;7362723;19;161906;-14
2022/03/20 09:42:54;;;;;;;4.57;3.63;;;;;;;;;;7357635;19;162294;-14
2022/03/20 09:45:26;;;;;;;3.77;3.23;;;;;;;;;;7336825;19;154081;-15
2022/03/20 09:47:59;;;;;;;8.47;3.50;;;;;;;;;;7337186;19;153697;-14
2022/03/20 09:50:31;;;;;;;7.45;3.47;;;;;;;;;;7335316;19;161993;-15
2022/03/20 09:53:05;;;;;;;4.97;3.83;;;;;;;;;;7332506;19;162431;-16
2022/03/20 09:55:36;;;;;;;6.85;3.47;;;;;;;;;;7334227;19;153906;-15
2022/03/20 09:58:08;;;;;;;8.18;4.05;;;;;;;;;;7333970;19;153287;-14
2022/03/20 10:00:39;;;;;;;6.80;3.90;;;;;;;;;;7337647;19;161818;-15
2022/03/20 10:03:17;;;;;;;5.70;3.72;;;;;;;;;;7333771;19;162562;-15
2022/03/20 10:06:05;;;;;;;10.55;3.75;;;;;;;;;;7333922;19;154000;-16
2022/03/20 10:08:40;;;;;;;12.00;3.40;;;;;;;;;;7334051;19;153758;-14
2022/03/20 10:11:15;;;;;;;5.20;3.67;;;;;;;;;;7333572;19;162176;-15
2022/03/20 10:14:09;;;;;;;8.65;3.47;;;;;;;;;;7331327;19;162394;-16
2022/03/20 10:16:42;;;;;;;8.40;3.72;;;;;;;;;;7333980;19;153987;-15
2022/03/20 10:19:28;;;;;;;;;;;;;;;;;;7334231;19;153917;-15
2022/03/20 10:22:03;;;;;;;15.68;6.18;;;;;;;;;;7335270;19;161655;-15
2022/03/20 10:24:39;;;;;;;14.70;4.22;;;;;;;;;;7335132;19;162169;-14
2022/03/20 10:27:19;;;;;;;7.28;3.65;;;;;;;;;;7335621;19;153913;-15
2022/03/20 10:29:55;;;;;;;11.13;4.00;;;;;;;;;;7336197;19;153844;-15
2022/03/20 10:32:27;;;;;;;7.63;4.00;;;;;;;;;;7334518;19;161747;-16
2022/03/20 10:35:01;;;;;;;8.63;4.03;;;;;;;;;;7336958;19;162488;-16
2022/03/20 10:37:54;;;;;;;9.82;4.35;;;;;;;;;;7333028;19;154041;-15
2022/03/20 10:40:30;;;;;;;7.97;3.80;;;;;;;;;;7332877;19;153841;-14
2022/03/20 10:43:10;;;;;;;6.28;3.38;;;;;;;;;;7332505;19;161884;-15
2022/03/20 10:46:00;;;;;;;7.07;4.05;;;;;;;;;;7332406;19;162371;-14
2022/03/20 10:48:41;;;;;;;9.00;3.80;;;;;;;;;;7332678;19;155133;-15
2022/03/20 10:51:12;;;;;;;7.57;3.92;;;;;;;;;;7330169;19;153575;-15
2022/03/20 10:53:58;;;;;;;5.70;2.92;;;;;;;;;;7330069;19;161826;-16
2022/03/20 10:56:32;;;;;;;5.10;3.17;;;;;;;;;;7331954;19;162571;-16
2022/03/20 10:59:14;;;;;;;10.00;3.45;;;;;;;;;;7330258;19;154284;-15
2022/03/20 11:01:49;;;;;;;9.35;3.50;;;;;;;;;;7330285;19;153601;-15
2022/03/20 11:04:23;;;;;;;7.60;2.83;;;;;;;;;;7331850;19;161868;-15
2022/03/20 11:06:59;;;;;;;5.57;2.90;;;;;;;;;;7330443;19;162740;-16
2022/03/20 11:09:31;;;;;;;5.13;3.20;;;;;;;;;;7331126;19;153983;-16
2022/03/20 11:12:10;;;;;;;5.63;3.20;;;;;;;;;;7331930;19;153517;-15
2022/03/20 11:14:41;;;;;;;7.35;3.05;;;;;;;;;;7329064;19;161823;-14
2022/03/20 11:17:17;;;;;;;6.45;3.38;;;;;;;;;;7331407;19;162384;-16
2022/03/20 11:19:53;;;;;;;5.82;3.17;;;;;;;;;;7331839;19;154023;-15
2022/03/20 11:22:25;;;;;;;5.90;3.30;;;;;;;;;;7331741;19;154047;-16
2022/03/20 11:24:57;;;;;;;4.53;3.13;;;;;;;;;;7331283;19;161985;-15
2022/03/20 11:27:34;;;;;;;5.93;2.92;;;;;;;;;;7331285;19;163366;-14
2022/03/20 11:30:08;;;;;;;3.42;2.88;;;;;;;;;;7331239;19;154264;-15
2022/03/20 11:32:40;;;;;;;5.28;2.60;;;;;;;;;;7331644;19;153811;-16
2022/03/20 11:35:12;;;;;;;5.27;3.17;;;;;;;;;;7328216;19;162025;-14
2022/03/20 11:37:46;;;;;;;3.65;2.63;;;;;;;;;;7330559;19;162421;-14
2022/03/20 11:40:20;;;;;;;5.05;2.80;;;;;;;;;;7330909;19;154254;-15
2022/03/20 11:43:19;;;;;;;5.60;3.40;;;;;;;;;;7331076;19;153526;-15
2022/03/20 11:46:21;;;;;;;5.72;2.92;;;;;;;;;;7330514;19;161905;-14
2022/03/20 11:49:23;;;;;;;3.42;2.65;;;;;;;;;;7330340;19;162522;-15
2022/03/20 11:52:05;;;;;;;5.05;2.80;;;;;;;;;;7330782;19;153956;-15
2022/03/20 11:54:59;;;;;;;5.55;2.97;;;;;;;;;;7328677;19;153543;-14
2022/03/20 11:57:44;;;;;;;3.22;2.55;;;;;;;;;;7330382;19;162205;-13
2022/03/20 12:00:20;;;;;;;4.90;2.90;;;;;;;;;;7330081;19;162422;-12
2022/03/20 12:03:13;;;;;;;3.85;2.50;;;;;;;;;;7330297;19;154120;-13
2022/03/20 12:06:04;;;;;;;5.32;2.65;;;;;;;;;;7330046;19;153680;-16
2022/03/20 12:08:47;;;;;;;4.53;2.40;;;;;;;;;;7329887;19;162135;-12
2022/03/20 12:11:29;;;;;;;3.63;2.35;;;;;;;;;;7329987;19;162902;-13
2022/03/20 12:14:13;;;;;;;3.40;2.22;;;;;;;;;;7329351;19;154108;-16
2022/03/20 12:17:03;;;;;;;3.67;2.30;;;;;;;;;;7330073;19;153699;-15
2022/03/20 12:19:41;;;;;;;2.97;2.35;;;;;;;;;;7329393;19;161822;-14
2022/03/20 12:22:18;;;;;;;3.83;2.35;;;;;;;;;;7329537;19;162510;-14
2022/03/20 12:24:58;;;;;;;4.93;2.63;;;;;;;;;;7329837;19;153917;-13
2022/03/20 12:27:48;;;;;;;3.05;1.98;;;;;;;;;;7329948;19;153779;-15
2022/03/20 12:30:35;;;;;;;2.90;1.67;;;;;;;;;;7328458;19;162017;-15
2022/03/20 12:33:25;;;;;;;3.15;1.75;;;;;;;;;;7329438;19;162349;-13
2022/03/20 12:35:57;;;;;;;2.47;1.70;;;;;;;;;;7329414;19;153962;-13
2022/03/20 12:38:40;;;;;;;4.37;2.13;;;;;;;;;;7329525;19;153511;-13
2022/03/20 12:41:14;;;;;;;5.32;2.33;;;;;;;;;;7328826;19;161800;-13
2022/03/20 12:43:58;;;;;;;2.97;1.67;;;;;;;;;;7328893;19;162483;-14
2022/03/20 12:46:30;;;;;;;2.40;1.60;;;;;;;;;;7329291;19;153914;-15
2022/03/20 12:49:05;;;;;;;4.32;1.98;;;;;;;;;;7329315;19;153524;-14
2022/03/20 12:51:38;;;;;;;4.32;1.73;;;;;;;;;;7326192;19;161832;-18
2022/03/20 12:54:15;;;;;;;;;;;;;;;;;;7328449;19;162324;-14
2022/03/20 12:56:58;;;;;;;2.97;1.73;;;;;;;;;;7328882;19;154072;-15
2022/03/20 12:59:29;;;;;;;;;;;;;;;;;;7329455;19;153738;-14
2022/03/20 13:02:08;;;;;;;3.38;1.70;;;;;;;;;;7328347;19;161854;-14
2022/03/20 13:04:47;;;;;;;3.20;1.90;;;;;;;;;;7328165;19;162860;-14
2022/03/20 13:07:25;;;;;;;2.80;1.42;;;;;;;;;;7328553;19;154678;-14
2022/03/20 13:10:00;;;;;;;3.38;1.40;;;;;;;;;;7327188;19;153569;-14
2022/03/20 13:12:51;;;;;;;3.00;1.90;;;;;;;;;;7326905;19;161938;-14
2022/03/20 13:15:29;;;;;;;1.80;1.52;;;;;;;;;;7326289;19;162329;-13
2022/03/20 13:18:02;;;;;;;2.15;1.50;;;;;;;;;;7328547;19;154023;-12
2022/03/20 13:20:40;;;;;;;3.57;2.07;;;;;;;;;;7335438;19;153532;-14
2022/03/20 13:23:14;;;;;;;1.52;1.20;;;;;;;;;;7335007;19;162122;-15
2022/03/20 13:25:48;;;;;;;2.97;1.60;;;;;;;;;;7334631;19;162536;-13
2022/03/20 13:28:25;;;;;;;5.30;1.98;;;;;;;;;;7335078;19;154424;-15
2022/03/20 13:30:58;;;;;;;2.38;1.38;;;;;;;;;;7334692;19;153711;-15
2022/03/20 13:33:31;;;;;;;3.53;1.50;;;;;;;;;;7334436;19;162185;-13
2022/03/20 13:36:08;;;;;;;4.47;1.80;;;;;;;;;;7331296;19;162856;-14
2022/03/20 13:38:44;;;;;;;3.13;1.73;;;;;;;;;;7334760;19;153998;-15
2022/03/20 13:41:19;;;;;;;3.70;1.77;;;;;;;;;;7334651;19;153695;-14
2022/03/20 13:43:57;;;;;;;1.38;1.27;;;;;;;;;;7334126;19;161842;-15
2022/03/20 13:46:30;;;;;;;2.63;1.70;;;;;;;;;;7334074;19;162510;-13
2022/03/20 13:49:03;;;;;;;3.58;1.40;;;;;;;;;;7334315;19;153977;-16
2022/03/20 13:51:38;;;;;;;2.63;1.50;;;;;;;;;;7331747;19;153530;-15
2022/03/20 13:54:18;;;;;;;2.25;1.60;;;;;;;;;;7333934;19;161786;-15
2022/03/20 13:56:51;;;;;;;2.97;1.60;;;;;;;;;;7330135;19;162468;-14
2022/03/20 13:59:24;;;;;;;1.52;1.33;;;;;;;;;;7334201;19;153948;-14
2022/03/20 14:01:57;;;;;;;2.72;1.35;;;;;;;;;;7334266;19;153484;-13
2022/03/20 14:04:28;;;;;;;1.88;1.67;;;;;;;;;;7333793;19;162056;-15
2022/03/20 14:07:04;;;;;;;3.08;1.55;;;;;;;;;;7333524;19;162558;-13
2022/03/20 14:09:37;;;;;;;5.15;1.58;;;;;;;;;;7333710;19;154021;-13
2022/03/20 14:12:22;;;;;;;;;;;;;;;;;;7334292;19;153583;-14
2022/03/20 14:14:54;;;;;;;2.17;1.80;;;;;;;;;;7333023;19;161981;-14
2022/03/20 14:17:45;;;;;;;4.18;1.45;;;;;;;;;;7333173;19;162558;-14
2022/03/20 14:20:25;;;;;;;2.60;1.50;;;;;;;;;;7333367;19;153970;-15
2022/03/20 14:23:03;;;;;;;4.40;1.83;;;;;;;;;;7333389;19;153300;-14
2022/03/20 14:25:37;;;;;;;2.30;1.30;;;;;;;;;;7333059;19;161952;-15
2022/03/20 14:28:10;;;;;;;2.60;1.65;;;;;;;;;;7332858;19;162443;-13
2022/03/20 14:41:51;;;;;;;2.10;1.60;;;;;;;;;;7333146;19;154103;-15
2022/03/20 14:44:24;;;;;;;3.20;1.70;;;;;;;;;;7333149;19;153505;-14
2022/03/20 14:46:56;;;;;;;2.20;1.50;;;;;;;;;;7332431;19;161919;-14
2022/03/20 14:49:29;;;;;;;1.83;1.67;;;;;;;;;;7332283;19;162249;-15
2022/03/20 14:52:02;;;;;;;4.10;1.40;;;;;;;;;;7332949;19;153854;-14
2022/03/20 14:54:37;;;;;;;4.80;1.70;;;;;;;;;;7332611;19;153324;-14
2022/03/20 14:57:08;;;;;;;3.05;1.70;;;;;;;;;;7329852;19;161756;-14
2022/03/20 14:59:39;;;;;;;2.95;1.60;;;;;;;;;;7332204;19;162451;-15
2022/03/20 15:02:13;;;;;;;5.38;1.90;;;;;;;;;;7332635;19;153995;-14
2022/03/20 15:04:48;;;;;;;2.78;1.65;;;;;;;;;;7332593;19;153741;-14
2022/03/20 15:07:20;;;;;;;2.53;1.67;;;;;;;;;;7331863;19;161814;-15
2022/03/20 15:12:38;;;;;;;2.38;1.90;;;;;;;;;;7332357;19;154073;-16
2022/03/20 15:15:10;;;;;;;3.15;1.60;;;;;;;;;;7331009;19;153729;-13
2022/03/20 15:17:41;;;;;;;3.03;1.80;;;;;;;;;;7329058;19;162070;-15
2022/03/20 15:20:13;;;;;;;3.50;1.98;;;;;;;;;;7331898;19;162490;-14
2022/03/20 15:22:45;;;;;;;2.35;1.60;;;;;;;;;;7330814;19;154382;-15
2022/03/20 15:25:19;;;;;;;3.40;1.90;;;;;;;;;;7330807;19;153542;-14
2022/03/20 15:27:50;;;;;;;3.60;2.15;;;;;;;;;;7330911;19;161835;-15
2022/03/20 15:30:23;;;;;;;4.22;2.13;;;;;;;;;;7332767;19;162447;-15
2022/03/20 15:32:54;;;;;;;;;;;;;;;;;;7334415;19;154157;-15
2022/03/20 15:35:26;;;;;;;2.95;1.85;;;;;;;;;;7332499;19;153144;-16
2022/03/20 15:37:57;;;;;;;2.00;1.80;;;;;;;;;;7330425;19;164255;-16
2022/03/20 15:40:31;;;;;;;3.28;1.88;;;;;;;;;;7332679;19;162388;-14
2022/03/20 15:43:03;;;;;;;3.00;1.90;;;;;;;;;;7330132;19;154743;-15
2022/03/20 15:45:34;;;;;;;3.28;1.77;;;;;;;;;;7332693;19;153728;-15
2022/03/20 15:48:08;;;;;;;2.53;2.13;;;;;;;;;;7332320;19;162170;-16
2022/03/20 15:50:41;;;;;;;3.95;1.63;;;;;;;;;;7331036;19;162378;-14
2022/03/20 15:53:13;;;;;;;3.05;2.00;;;;;;;;;;7332632;19;154202;-15
2022/03/20 15:56:01;;;;;;;4.65;1.92;;;;;;;;;;7331908;19;153889;-15
2022/03/20 15:58:35;;;;;;;3.20;2.20;;;;;;;;;;7331787;19;161637;-14
2022/03/20 16:01:08;;;;;;;1.70;1.60;;;;;;;;;;7332318;19;162384;-16
2022/03/20 16:03:40;;;;;;;2.92;1.65;;;;;;;;;;7332485;19;154009;-15
2022/03/20 16:06:12;;;;;;;3.53;1.80;;;;;;;;;;7332451;19;153611;-14
2022/03/20 16:08:44;;;;;;;3.15;1.55;;;;;;;;;;7331393;19;161831;-17
2022/03/20 16:11:29;;;;;;;2.42;1.85;;;;;;;;;;7330922;19;162783;-13
2022/03/20 16:14:00;;;;;;;3.63;1.83;;;;;;;;;;7332825;19;153975;-15
2022/03/20 16:16:31;;;;;;;3.95;2.33;;;;;;;;;;7332257;19;153573;-14
2022/03/20 16:19:03;;;;;;;5.07;2.00;;;;;;;;;;7328688;19;162507;-15
2022/03/20 16:21:34;;;;;;;4.53;1.70;;;;;;;;;;7328493;19;162914;-13
2022/03/20 16:29:36;;;;;;;5.03;2.45;;;;;;;;;;7329407;19;162093;-13
2022/03/20 16:32:13;;;;;;;3.38;1.95;;;;;;;;;;7327934;19;162310;-13
2022/03/20 16:34:47;;;;;;;3.38;1.80;;;;;;;;;;7331598;19;154061;-15
2022/03/20 16:37:19;;;;;;;3.85;2.33;;;;;;;;;;7329314;19;153578;-15
2022/03/20 16:39:50;;;;;;;3.92;2.45;;;;;;;;;;7330575;19;162069;-14
2022/03/20 16:42:25;;;;;;;4.88;2.30;;;;;;;;;;7330533;19;162584;-15
2022/03/20 16:45:04;;;;;;;3.42;2.33;;;;;;;;;;7331040;19;154239;-16
2022/03/20 16:47:36;;;;;;;4.22;2.75;;;;;;;;;;7331348;19;153561;-15
2022/03/20 16:50:11;;;;;;;5.88;2.50;;;;;;;;;;7328360;19;161862;-14
2022/03/20 16:52:43;;;;;;;3.38;2.15;;;;;;;;;;7329112;19;162361;-15
2022/03/20 16:55:15;;;;;;;4.10;2.45;;;;;;;;;;7338039;19;154033;-15
2022/03/20 16:57:48;;;;;;;4.35;2.15;;;;;;;;;;7331832;19;153530;-15
2022/03/20 17:00:21;;;;;;;2.90;2.05;;;;;;;;;;7333969;19;162057;-17
2022/03/20 17:02:52;;;;;;;4.00;2.53;;;;;;;;;;7333894;19;162577;-14
2022/03/20 17:05:23;;;;;;;9.25;3.05;;;;;;;;;;7334246;19;153994;-14
2022/03/20 17:07:55;;;;;;;4.35;2.70;;;;;;;;;;7334233;19;153658;-14
2022/03/20 17:10:26;;;;;;;5.15;2.70;;;;;;;;;;7333787;19;161966;-16
2022/03/20 17:13:02;;;;;;;5.63;3.10;;;;;;;;;;7333385;19;162379;-14
2022/03/20 17:15:34;;;;;;;5.90;3.30;;;;;;;;;;7333693;19;153955;-14
2022/03/20 17:18:07;;;;;;;10.88;4.85;;;;;;;;;;7332722;19;153501;-14
2022/03/20 17:20:39;;;;;;;8.82;4.60;;;;;;;;;;7333827;19;161951;-14
2022/03/20 17:23:10;;;;;;;8.57;4.38;;;;;;;;;;7334887;19;162498;-15
2022/03/20 17:25:41;;;;;;;8.73;4.95;;;;;;;;;;7337407;19;154335;-14
2022/03/20 17:28:15;;;;;;;8.88;4.43;;;;;;;;;;7332394;19;153562;-15
2022/03/20 17:30:46;;;;;;;11.55;5.03;;;;;;;;;;7333367;19;161826;-15
2022/03/20 17:33:18;;;;;;;10.43;4.82;;;;;;;;;;7333386;19;162603;-16
2022/03/20 17:35:49;;;;;;;11.45;4.90;;;;;;;;;;7333488;19;153990;-14
2022/03/20 17:38:21;;;;;;;5.45;4.07;;;;;;;;;;7331837;19;153727;-16
2022/03/20 17:40:52;;;;;;;7.40;4.18;;;;;;;;;;7331566;19;161874;-16
2022/03/20 17:43:26;;;;;;;8.20;4.38;;;;;;;;;;7332865;19;162412;-16
2022/03/20 17:45:57;;;;;;;13.43;4.80;;;;;;;;;;7333630;19;153994;-17
2022/03/20 17:48:29;;;;;;;4.57;3.72;;;;;;;;;;7335113;19;153688;-14
2022/03/20 17:51:02;;;;;;;6.70;4.03;;;;;;;;;;7334380;19;161800;-14
2022/03/20 17:53:34;;;;;;;8.43;4.17;;;;;;;;;;7336096;19;162394;-15
2022/03/20 17:56:05;;;;;;;8.02;4.32;;;;;;;;;;7337206;19;154287;-16
2022/03/20 17:58:39;;;;;;;6.55;3.72;;;;;;;;;;7333961;19;153650;-15
2022/03/20 18:01:11;;;;;;;10.05;3.80;;;;;;;;;;7336104;19;161912;-14
2022/03/20 18:09:09;;;;;;;7.32;4.18;;;;;;;;;;7332581;19;153793;-15
2022/03/20 18:11:41;;;;;;;5.65;3.88;;;;;;;;;;7332472;19;161825;-14
2022/03/20 18:14:14;;;;;;;5.07;3.03;;;;;;;;;;7332338;19;162355;-14
2022/03/20 18:16:46;;;;;;;9.40;4.10;;;;;;;;;;7331859;19;154303;-13
2022/03/20 18:19:18;;;;;;;8.35;3.45;;;;;;;;;;7330554;19;153714;-12
2022/03/20 18:21:49;;;;;;;6.13;3.87;;;;;;;;;;7332204;19;161754;-13
2022/03/20 18:24:23;;;;;;;5.63;3.67;;;;;;;;;;7336326;19;163326;-14
2022/03/20 18:26:54;;;;;;;7.28;3.92;;;;;;;;;;7332240;19;154038;-13
2022/03/20 18:29:28;;;;;;;5.07;3.60;;;;;;;;;;7332311;19;153537;-13
2022/03/20 18:32:00;;;;;;;5.55;3.22;;;;;;;;;;7331806;19;161838;-13
2022/03/20 18:34:31;;;;;;;4.80;3.35;;;;;;;;;;7331662;19;162523;-13
2022/03/20 18:37:03;;;;;;;7.40;3.40;;;;;;;;;;7331955;19;154432;-14
2022/03/20 18:39:34;;;;;;;7.10;3.30;;;;;;;;;;7329826;19;153545;-15
2022/03/20 18:42:06;;;;;;;6.55;3.60;;;;;;;;;;7331163;19;162110;-13
2022/03/20 18:44:42;;;;;;;4.97;3.30;;;;;;;;;;7330857;19;162380;-13
2022/03/20 18:47:13;;;;;;;5.40;3.08;;;;;;;;;;7332923;19;154070;-14
2022/03/20 18:49:46;;;;;;;4.60;2.97;;;;;;;;;;7330878;19;153672;-14
2022/03/20 18:52:18;;;;;;;8.27;3.75;;;;;;;;;;7329952;19;162850;-14
2022/03/20 18:54:49;;;;;;;5.18;3.45;;;;;;;;;;7329551;19;162385;-13
2022/03/20 18:57:20;;;;;;;6.40;2.90;;;;;;;;;;7329415;19;154083;-14
2022/03/20 18:59:54;;;;;;;8.20;3.28;;;;;;;;;;7328912;19;153566;-15
2022/03/20 19:02:29;;;;;;;6.05;3.60;;;;;;;;;;7331960;19;161788;-14
2022/03/20 19:05:03;;;;;;;10.00;3.60;;;;;;;;;;7331921;19;162634;-14
2022/03/20 19:07:35;;;;;;;6.30;3.80;;;;;;;;;;7332217;19;153934;-13
2022/03/20 19:10:07;;;;;;;6.32;3.03;;;;;;;;;;7331919;19;153530;-15
2022/03/20 19:12:39;;;;;;;5.47;3.37;;;;;;;;;;7331684;19;161982;-14
2022/03/20 19:15:15;;;;;;;5.63;3.28;;;;;;;;;;7331488;19;162525;-15
2022/03/20 19:17:52;;;;;;;5.25;3.10;;;;;;;;;;7329175;19;153710;-16
2022/03/20 19:20:24;;;;;;;5.50;3.15;;;;;;;;;;7329145;19;153719;-14
2022/03/20 19:22:55;;;;;;;4.65;3.53;;;;;;;;;;7331465;19;162175;-15
2022/03/20 19:25:26;;;;;;;3.47;2.88;;;;;;;;;;7331092;19;162458;-16
2022/03/20 19:27:57;;;;;;;6.57;3.47;;;;;;;;;;7331533;19;154085;-15
2022/03/20 19:30:31;;;;;;;5.18;3.20;;;;;;;;;;7331412;19;153620;-14
2022/03/20 19:33:03;;;;;;;6.10;3.15;;;;;;;;;;7331197;19;162008;-14
2022/03/20 19:41:01;;;;;;;3.78;2.72;;;;;;;;;;7330046;19;153982;-16
2022/03/20 19:43:32;;;;;;;5.60;3.42;;;;;;;;;;7329495;19;162004;-15
2022/03/20 19:46:07;;;;;;;4.35;2.72;;;;;;;;;;7330836;19;162482;-14
2022/03/20 19:48:39;;;;;;;3.88;3.05;;;;;;;;;;7331264;19;154047;-15
2022/03/20 19:51:12;;;;;;;5.68;2.83;;;;;;;;;;7328756;19;153577;-14
2022/03/20 19:53:44;;;;;;;4.65;3.35;;;;;;;;;;7330567;19;161907;-16
2022/03/20 19:56:16;;;;;;;3.78;3.00;;;;;;;;;;7330429;19;162394;-16
2022/03/20 19:58:48;;;;;;;3.20;2.80;;;;;;;;;;7330262;19;154039;-16
2022/03/20 20:01:21;;;;;;;5.88;3.30;;;;;;;;;;7330501;19;153448;-17
2022/03/20 20:03:53;;;;;;;4.03;2.95;;;;;;;;;;7330091;19;161955;-13
2022/03/20 20:06:24;;;;;;;4.47;2.90;;;;;;;;;;7330143;19;162594;-13
2022/03/20 20:08:56;;;;;;;5.15;2.85;;;;;;;;;;7330561;19;153998;-14
2022/03/20 20:11:28;;;;;;;3.55;2.88;;;;;;;;;;7330418;19;153545;-14
2022/03/20 20:16:45;;;;;;;4.15;3.03;;;;;;;;;;7329929;19;162404;-14
2022/03/20 20:19:17;;;;;;;4.30;2.85;;;;;;;;;;7329379;19;153990;-14
2022/03/20 20:21:48;;;;;;;3.10;2.72;;;;;;;;;;7330197;19;153658;-14
2022/03/20 20:24:21;;;;;;;4.30;2.83;;;;;;;;;;7328415;19;161938;-13
2022/03/20 20:26:52;;;;;;;3.58;2.47;;;;;;;;;;7329027;19;162453;-15
2022/03/20 20:29:24;;;;;;;6.60;3.70;;;;;;;;;;7329900;19;154031;-13
2022/03/20 20:31:58;;;;;;;4.70;3.17;;;;;;;;;;7329972;19;153524;-14
2022/03/20 20:34:30;;;;;;;3.53;2.97;;;;;;;;;;7329617;19;162171;-15
2022/03/20 20:37:01;;;;;;;3.22;2.80;;;;;;;;;;7329409;19;162309;-14
2022/03/20 20:39:34;;;;;;;3.25;3.00;;;;;;;;;;7328933;19;153963;-13
2022/03/20 20:42:08;;;;;;;5.75;3.22;;;;;;;;;;7329484;19;153535;-14
2022/03/20 20:44:39;;;;;;;4.80;3.35;;;;;;;;;;7329080;19;162085;-13
2022/03/20 20:47:13;;;;;;;3.63;2.72;;;;;;;;;;7328998;19;162623;-14
2022/03/20 20:49:45;;;;;;;3.15;2.85;;;;;;;;;;7328782;19;154041;-14
2022/03/20 20:52:16;;;;;;;3.67;3.28;;;;;;;;;;7328788;19;153671;-14
2022/03/20 20:54:47;;;;;;;3.67;3.28;;;;;;;;;;7328692;19;161837;-13
2022/03/20 20:57:19;;;;;;;3.63;2.88;;;;;;;;;;7328658;19;162372;-15
2022/03/20 20:59:50;;;;;;;5.95;3.33;;;;;;;;;;7326894;19;154177;-13
2022/03/20 21:02:25;;;;;;;4.88;3.25;;;;;;;;;;7328437;19;153804;-16
2022/03/20 21:04:57;;;;;;;3.65;3.13;;;;;;;;;;7328240;19;161833;-16
2022/03/20 21:12:59;;;;;;;3.67;3.30;;;;;;;;;;7328443;19;153639;-14
2022/03/20 21:15:31;;;;;;;5.80;3.42;;;;;;;;;;7328084;19;162059;-14
2022/03/20 21:18:05;;;;;;;2.95;2.65;;;;;;;;;;7328030;19;162786;-14
2022/03/20 21:20:36;;;;;;;3.63;2.85;;;;;;;;;;7326924;19;153986;-15
2022/03/20 21:23:09;;;;;;;4.53;3.60;;;;;;;;;;7326935;19;153811;-14
2022/03/20 21:25:40;;;;;;;5.03;3.77;;;;;;;;;;7328798;19;161839;-14
2022/03/20 21:28:12;;;;;;;4.72;3.25;;;;;;;;;;7325953;19;162532;-14
2022/03/20 21:30:43;;;;;;;4.03;3.05;;;;;;;;;;7330366;19;154139;-16
2022/03/20 21:33:18;;;;;;;4.38;3.05;;;;;;;;;;7329456;19;153609;-14
2022/03/20 21:35:50;;;;;;;3.22;2.67;;;;;;;;;;7329149;19;162123;-15
2022/03/20 21:38:24;;;;;;;5.47;3.13;;;;;;;;;;7330208;19;162529;-15
2022/03/20 21:40:55;;;;;;;4.45;3.15;;;;;;;;;;7335090;19;154081;-14
2022/03/20 21:43:29;;;;;;;3.75;2.80;;;;;;;;;;7337466;19;153601;-15
2022/03/20 21:46:03;;;;;;;6.43;3.28;;;;;;;;;;7337330;19;162009;-15
2022/03/20 21:48:36;;;;;;;;;;;;;;;;;;7337931;19;162460;-15
2022/03/20 21:51:11;;;;;;;3.63;2.90;;;;;;;;;;7335402;19;154146;-13
2022/03/20 21:53:45;;;;;;;5.03;3.03;;;;;;;;;;7337459;19;153568;-13
2022/03/20 21:56:17;;;;;;;3.42;2.60;;;;;;;;;;7332928;19;161760;-13
2022/03/20 21:58:49;;;;;;;3.90;2.88;;;;;;;;;;7336536;19;163067;-15
2022/03/20 22:01:20;;;;;;;4.18;3.30;;;;;;;;;;7335908;19;154115;-15
2022/03/20 22:03:55;;;;;;;5.25;3.47;;;;;;;;;;7333710;19;153524;-15
2022/03/20 22:06:27;;;;;;;3.35;2.72;;;;;;;;;;7335762;19;162136;-15
2022/03/20 22:08:59;;;;;;;4.47;3.13;;;;;;;;;;7335630;19;162720;-16
2022/03/20 22:11:31;;;;;;;4.00;3.15;;;;;;;;;;7336359;19;153975;-15
2022/03/20 22:14:08;;;;;;;4.18;2.97;;;;;;;;;;7335641;19;153557;-14
2022/03/20 22:16:40;;;;;;;4.18;3.45;;;;;;;;;;7336334;19;161817;-12
2022/03/20 22:19:15;;;;;;;4.30;2.43;;;;;;;;;;7335585;19;162443;-14
2022/03/20 22:21:46;;;;;;;6.18;4.20;;;;;;;;;;7334817;19;153976;-13
2022/03/20 22:24:18;;;;;;;12.80;6.72;;;;;;;;;;7336546;19;153537;-13
2022/03/20 22:26:50;;;;;;;6.50;4.80;;;;;;;;;;7335267;19;161874;-14
2022/03/20 22:29:21;;;;;;;11.25;5.85;;;;;;;;;;7334997;19;164475;-13
2022/03/20 22:31:52;;;;;;;7.45;4.57;;;;;;;;;;7335873;19;153979;-14
2022/03/20 22:34:26;;;;;;;5.72;3.95;;;;;;;;;;7335338;19;153460;-13
2022/03/20 22:39:41;;;;;;;8.77;4.72;;;;;;;;;;7334234;19;162975;-13
2022/03/20 22:42:13;;;;;;;7.22;4.00;;;;;;;;;;7333982;19;154038;-13
2022/03/20 22:44:44;;;;;;;4.60;3.90;;;;;;;;;;7334994;19;153622;-14
2022/03/20 22:47:15;;;;;;;8.10;3.97;;;;;;;;;;7335164;19;161921;-14
2022/03/20 22:52:34;;;;;;;4.72;3.60;;;;;;;;;;7334713;19;154321;-14
2022/03/20 22:55:08;;;;;;;6.00;3.95;;;;;;;;;;7335109;19;153637;-15
2022/03/20 22:57:40;;;;;;;5.28;3.55;;;;;;;;;;7334935;19;161968;-13
2022/03/20 23:00:39;;;;;;;12.93;3.83;;;;;;;;;;7334558;19;162413;-13
2022/03/20 23:03:11;;;;;;;4.93;3.35;;;;;;;;;;7330459;19;154950;-15
2022/03/20 23:05:45;;;;;;;6.07;3.25;;;;;;;;;;7330933;19;153681;-15
2022/03/20 23:08:17;;;;;;;7.93;4.78;;;;;;;;;;7326472;19;161796;-14
2022/03/20 23:10:48;;;;;;;8.13;5.10;;;;;;;;;;7331821;19;162345;-13
2022/03/20 23:13:19;;;;;;;9.27;4.68;;;;;;;;;;7329380;19;153871;-14
2022/03/20 23:15:51;;;;;;;7.65;4.78;;;;;;;;;;7330912;19;153904;-14
2022/03/20 23:18:23;;;;;;;7.22;4.78;;;;;;;;;;7331743;19;161940;-15
2022/03/20 23:20:56;;;;;;;9.75;4.55;;;;;;;;;;7331569;19;162329;-14
2022/03/20 23:23:28;;;;;;;7.38;4.32;;;;;;;;;;7332043;19;154127;-13
2022/03/20 23:25:59;;;;;;;12.23;4.53;;;;;;;;;;7331585;19;153566;-15
2022/03/20 23:28:32;;;;;;;14.48;5.07;;;;;;;;;;7331481;19;161915;-12
2022/03/20 23:31:07;;;;;;;10.25;4.85;;;;;;;;;;7331411;19;162306;-13
2022/03/20 23:33:43;;;;;;;14.23;4.68;;;;;;;;;;7331542;19;154048;-14
